sensor_id;sensor_type;location;lat;lon;timestamp;pressure;altitude;pressure_sealevel;temperature;humidity
26376;BME280;30544;42.196;24.336;2023-10-09T00:01:43;99425.66;;;24.32;41.21
26376;BME280;30544;42.196;24.336;2023-10-09T00:04:11;99426.16;;;24.34;41.19
26376;BME280;30544;42.196;24.336;2023-10-09T00:06:39;99431.81;;;24.34;41.02
26376;BME280;30544;42.196;24.336;2023-10-09T00:09:09;99438.84;;;24.36;40.94
26376;BME280;30544;42.196;24.336;2023-10-09T00:11:56;99424.00;;;24.30;41.19
26376;BME280;30544;42.196;24.336;2023-10-09T00:14:24;99415.50;;;24.30;41.40
26376;BME280;30544;42.196;24.336;2023-10-09T00:16:52;99405.66;;;24.19;41.73
26376;BME280;30544;42.196;24.336;2023-10-09T00:19:30;99408.13;;;24.12;41.60
26376;BME280;30544;42.196;24.336;2023-10-09T00:21:59;99408.47;;;24.11;41.42
26376;BME280;30544;42.196;24.336;2023-10-09T00:24:32;99425.47;;;24.11;41.61
26376;BME280;30544;42.196;24.336;2023-10-09T00:26:59;99426.31;;;24.11;41.69
26376;BME280;30544;42.196;24.336;2023-10-09T00:29:37;99429.81;;;24.08;41.64
26376;BME280;30544;42.196;24.336;2023-10-09T00:32:09;99424.47;;;24.07;41.53
26376;BME280;30544;42.196;24.336;2023-10-09T00:34:48;99430.94;;;23.90;42.10
26376;BME280;30544;42.196;24.336;2023-10-09T00:37:16;99435.44;;;23.91;42.27
26376;BME280;30544;42.196;24.336;2023-10-09T00:39:48;99436.91;;;23.80;42.24
26376;BME280;30544;42.196;24.336;2023-10-09T00:42:21;99445.56;;;23.75;42.34
26376;BME280;30544;42.196;24.336;2023-10-09T00:44:53;99442.59;;;23.80;42.32
26376;BME280;30544;42.196;24.336;2023-10-09T00:47:21;99434.91;;;23.80;42.23
26376;BME280;30544;42.196;24.336;2023-10-09T00:49:53;99440.41;;;23.77;42.43
26376;BME280;30544;42.196;24.336;2023-10-09T00:52:26;99440.91;;;23.79;42.57
26376;BME280;30544;42.196;24.336;2023-10-09T00:54:59;99445.06;;;23.81;42.38
26376;BME280;30544;42.196;24.336;2023-10-09T00:57:30;99442.09;;;23.78;42.79
26376;BME280;30544;42.196;24.336;2023-10-09T01:00:01;99450.41;;;23.74;42.41
26376;BME280;30544;42.196;24.336;2023-10-09T01:02:39;99456.91;;;23.83;42.71
26376;BME280;30544;42.196;24.336;2023-10-09T01:05:09;99450.91;;;23.76;42.89
26376;BME280;30544;42.196;24.336;2023-10-09T01:07:46;99442.91;;;23.69;43.12
26376;BME280;30544;42.196;24.336;2023-10-09T01:10:14;99462.06;;;23.73;42.86
26376;BME280;30544;42.196;24.336;2023-10-09T01:12:43;99459.06;;;23.69;43.15
26376;BME280;30544;42.196;24.336;2023-10-09T01:15:13;99463.69;;;23.65;43.12
26376;BME280;30544;42.196;24.336;2023-10-09T01:18:04;99469.56;;;23.68;43.35
26376;BME280;30544;42.196;24.336;2023-10-09T01:20:33;99459.91;;;23.69;43.37
26376;BME280;30544;42.196;24.336;2023-10-09T01:23:10;99453.53;;;23.64;43.31
26376;BME280;30544;42.196;24.336;2023-10-09T01:25:37;99442.63;;;23.49;43.77
26376;BME280;30544;42.196;24.336;2023-10-09T01:28:10;99464.63;;;23.52;43.87
26376;BME280;30544;42.196;24.336;2023-10-09T01:30:38;99483.09;;;23.49;44.06
26376;BME280;30544;42.196;24.336;2023-10-09T01:33:07;99490.41;;;23.50;43.98
26376;BME280;30544;42.196;24.336;2023-10-09T01:35:48;99484.91;;;23.45;44.29
26376;BME280;30544;42.196;24.336;2023-10-09T01:38:22;99482.22;;;23.40;44.20
26376;BME280;30544;42.196;24.336;2023-10-09T01:40:57;99482.56;;;23.47;44.41
26376;BME280;30544;42.196;24.336;2023-10-09T01:43:32;99483.91;;;23.41;43.96
26376;BME280;30544;42.196;24.336;2023-10-09T01:46:00;99491.72;;;23.44;44.42
26376;BME280;30544;42.196;24.336;2023-10-09T01:48:29;99480.25;;;23.49;44.00
26376;BME280;30544;42.196;24.336;2023-10-09T01:50:58;99478.56;;;23.39;44.11
26376;BME280;30544;42.196;24.336;2023-10-09T01:53:28;99485.38;;;23.38;43.70
26376;BME280;30544;42.196;24.336;2023-10-09T01:55:56;99506.53;;;23.41;43.87
26376;BME280;30544;42.196;24.336;2023-10-09T01:58:25;99508.97;;;23.34;44.23
26376;BME280;30544;42.196;24.336;2023-10-09T02:00:57;99513.63;;;23.30;44.21
26376;BME280;30544;42.196;24.336;2023-10-09T02:03:27;99517.94;;;23.27;44.29
26376;BME280;30544;42.196;24.336;2023-10-09T02:05:55;99507.88;;;23.13;44.84
26376;BME280;30544;42.196;24.336;2023-10-09T02:08:44;99507.88;;;23.13;44.12
26376;BME280;30544;42.196;24.336;2023-10-09T02:11:15;99511.03;;;23.11;44.03
26376;BME280;30544;42.196;24.336;2023-10-09T02:13:50;99514.66;;;23.03;44.03
26376;BME280;30544;42.196;24.336;2023-10-09T02:16:21;99506.69;;;23.05;44.04
26376;BME280;30544;42.196;24.336;2023-10-09T02:18:54;99525.13;;;23.02;43.86
26376;BME280;30544;42.196;24.336;2023-10-09T02:21:24;99531.19;;;22.87;43.72
26376;BME280;30544;42.196;24.336;2023-10-09T02:24:06;99530.53;;;22.90;43.84
26376;BME280;30544;42.196;24.336;2023-10-09T02:26:34;99532.19;;;22.91;43.88
26376;BME280;30544;42.196;24.336;2023-10-09T02:29:27;99546.16;;;22.88;43.62
26376;BME280;30544;42.196;24.336;2023-10-09T02:31:53;99556.97;;;22.72;43.65
26376;BME280;30544;42.196;24.336;2023-10-09T02:34:38;99563.75;;;22.85;43.37
26376;BME280;30544;42.196;24.336;2023-10-09T02:37:05;99566.28;;;22.86;43.47
26376;BME280;30544;42.196;24.336;2023-10-09T02:39:37;99585.75;;;22.74;43.36
26376;BME280;30544;42.196;24.336;2023-10-09T02:42:09;99583.66;;;22.66;43.09
26376;BME280;30544;42.196;24.336;2023-10-09T02:44:50;99590.25;;;22.75;43.19
26376;BME280;30544;42.196;24.336;2023-10-09T02:47:17;99590.59;;;22.60;42.88
26376;BME280;30544;42.196;24.336;2023-10-09T02:49:50;99604.09;;;22.63;43.10
26376;BME280;30544;42.196;24.336;2023-10-09T02:52:17;99613.34;;;22.55;43.07
26376;BME280;30544;42.196;24.336;2023-10-09T02:54:51;99616.03;;;22.60;42.90
26376;BME280;30544;42.196;24.336;2023-10-09T02:57:26;99616.56;;;22.62;42.75
26376;BME280;30544;42.196;24.336;2023-10-09T03:00:02;99617.59;;;22.66;42.85
26376;BME280;30544;42.196;24.336;2023-10-09T03:02:34;99623.50;;;22.56;43.32
26376;BME280;30544;42.196;24.336;2023-10-09T03:05:06;99621.81;;;22.55;42.64
26376;BME280;30544;42.196;24.336;2023-10-09T03:07:37;99635.22;;;22.49;42.91
26376;BME280;30544;42.196;24.336;2023-10-09T03:10:07;99629.78;;;22.52;42.25
26376;BME280;30544;42.196;24.336;2023-10-09T03:12:35;99638.16;;;22.44;42.44
26376;BME280;30544;42.196;24.336;2023-10-09T03:15:04;99641.47;;;22.60;41.98
26376;BME280;30544;42.196;24.336;2023-10-09T03:17:34;99646.75;;;22.52;42.63
26376;BME280;30544;42.196;24.336;2023-10-09T03:20:03;99650.09;;;22.55;42.46
26376;BME280;30544;42.196;24.336;2023-10-09T03:22:37;99648.47;;;22.62;42.12
26376;BME280;30544;42.196;24.336;2023-10-09T03:25:07;99649.13;;;22.59;42.12
26376;BME280;30544;42.196;24.336;2023-10-09T03:27:38;99647.56;;;22.53;42.23
26376;BME280;30544;42.196;24.336;2023-10-09T03:30:08;99665.25;;;22.59;42.00
26376;BME280;30544;42.196;24.336;2023-10-09T03:32:41;99664.31;;;22.49;41.97
26376;BME280;30544;42.196;24.336;2023-10-09T03:35:08;99675.31;;;22.37;41.55
26376;BME280;30544;42.196;24.336;2023-10-09T03:37:36;99675.00;;;22.25;41.90
26376;BME280;30544;42.196;24.336;2023-10-09T03:40:07;99677.94;;;22.20;41.37
26376;BME280;30544;42.196;24.336;2023-10-09T03:42:40;99679.38;;;22.31;41.71
26376;BME280;30544;42.196;24.336;2023-10-09T03:45:08;99692.16;;;22.42;41.00
26376;BME280;30544;42.196;24.336;2023-10-09T03:47:51;99697.41;;;22.35;41.00
26376;BME280;30544;42.196;24.336;2023-10-09T03:50:22;99698.66;;;22.43;40.90
26376;BME280;30544;42.196;24.336;2023-10-09T03:52:52;99724.59;;;22.45;41.22
26376;BME280;30544;42.196;24.336;2023-10-09T03:55:22;99720.22;;;22.25;41.53
26376;BME280;30544;42.196;24.336;2023-10-09T03:57:53;99721.56;;;22.28;41.88
26376;BME280;30544;42.196;24.336;2023-10-09T04:00:20;99719.25;;;22.30;41.81
26376;BME280;30544;42.196;24.336;2023-10-09T04:02:53;99727.22;;;22.28;42.01
26376;BME280;30544;42.196;24.336;2023-10-09T04:05:20;99728.56;;;22.30;41.76
26376;BME280;30544;42.196;24.336;2023-10-09T04:07:47;99738.31;;;22.24;41.63
26376;BME280;30544;42.196;24.336;2023-10-09T04:10:14;99738.19;;;22.15;42.13
26376;BME280;30544;42.196;24.336;2023-10-09T04:13:00;99740.78;;;22.12;41.72
26376;BME280;30544;42.196;24.336;2023-10-09T04:15:28;99741.44;;;22.09;42.25
26376;BME280;30544;42.196;24.336;2023-10-09T04:18:00;99756.09;;;21.92;41.73
26376;BME280;30544;42.196;24.336;2023-10-09T04:20:29;99762.75;;;21.82;41.60
26376;BME280;30544;42.196;24.336;2023-10-09T04:23:37;99768.59;;;21.72;41.40
26376;BME280;30544;42.196;24.336;2023-10-09T04:26:25;99773.88;;;21.60;41.43
26376;BME280;30544;42.196;24.336;2023-10-09T04:28:53;99780.22;;;21.52;41.25
26376;BME280;30544;42.196;24.336;2023-10-09T04:31:20;99786.09;;;21.55;40.82
26376;BME280;30544;42.196;24.336;2023-10-09T04:33:57;99789.59;;;21.47;40.70
26376;BME280;30544;42.196;24.336;2023-10-09T04:36:47;99795.63;;;21.41;41.33
26376;BME280;30544;42.196;24.336;2023-10-09T04:39:15;99791.81;;;21.50;41.09
26376;BME280;30544;42.196;24.336;2023-10-09T04:42:01;99801.50;;;21.44;41.10
26376;BME280;30544;42.196;24.336;2023-10-09T04:44:47;99795.84;;;21.44;40.86
26376;BME280;30544;42.196;24.336;2023-10-09T04:47:34;99796.16;;;21.43;40.98
26376;BME280;30544;42.196;24.336;2023-10-09T04:50:15;99801.19;;;21.46;41.29
26376;BME280;30544;42.196;24.336;2023-10-09T04:53:02;99816.13;;;21.46;41.16
26376;BME280;30544;42.196;24.336;2023-10-09T04:55:47;99811.31;;;21.47;41.03
26376;BME280;30544;42.196;24.336;2023-10-09T04:58:21;99810.66;;;21.55;41.07
26376;BME280;30544;42.196;24.336;2023-10-09T05:00:52;99806.38;;;21.39;40.69
26376;BME280;30544;42.196;24.336;2023-10-09T05:03:39;99822.31;;;21.29;40.50
26376;BME280;30544;42.196;24.336;2023-10-09T05:06:22;99838.56;;;21.38;40.88
26376;BME280;30544;42.196;24.336;2023-10-09T05:09:03;99840.78;;;21.41;40.79
26376;BME280;30544;42.196;24.336;2023-10-09T05:11:39;99845.34;;;21.37;40.72
26376;BME280;30544;42.196;24.336;2023-10-09T05:14:34;99853.06;;;21.07;40.48
26376;BME280;30544;42.196;24.336;2023-10-09T05:17:29;99854.13;;;21.11;40.38
26376;BME280;30544;42.196;24.336;2023-10-09T05:19:54;99846.50;;;21.12;40.90
26376;BME280;30544;42.196;24.336;2023-10-09T05:22:41;99853.81;;;21.13;40.77
26376;BME280;30544;42.196;24.336;2023-10-09T05:25:18;99865.16;;;21.08;40.29
26376;BME280;30544;42.196;24.336;2023-10-09T05:28:05;99866.31;;;21.07;40.45
26376;BME280;30544;42.196;24.336;2023-10-09T05:30:46;99864.25;;;21.12;40.23
26376;BME280;30544;42.196;24.336;2023-10-09T05:33:22;99864.56;;;21.11;40.56
26376;BME280;30544;42.196;24.336;2023-10-09T05:35:55;99872.91;;;21.21;40.31
26376;BME280;30544;42.196;24.336;2023-10-09T05:38:32;99881.13;;;21.17;39.90
26376;BME280;30544;42.196;24.336;2023-10-09T05:41:01;99887.97;;;21.11;40.00
26376;BME280;30544;42.196;24.336;2023-10-09T05:43:50;99898.16;;;21.07;39.28
26376;BME280;30544;42.196;24.336;2023-10-09T05:46:34;99903.50;;;21.09;39.72
26376;BME280;30544;42.196;24.336;2023-10-09T05:49:03;99915.09;;;21.07;40.05
26376;BME280;30544;42.196;24.336;2023-10-09T05:51:45;99915.81;;;20.94;39.58
26376;BME280;30544;42.196;24.336;2023-10-09T05:54:18;99921.50;;;20.89;39.62
26376;BME280;30544;42.196;24.336;2023-10-09T05:57:05;99927.06;;;20.94;39.22
26376;BME280;30544;42.196;24.336;2023-10-09T05:59:49;99934.41;;;20.95;38.81
26376;BME280;30544;42.196;24.336;2023-10-09T06:02:47;99949.63;;;20.94;38.57
26376;BME280;30544;42.196;24.336;2023-10-09T06:05:33;99954.03;;;21.05;38.27
26376;BME280;30544;42.196;24.336;2023-10-09T06:08:07;99958.03;;;20.99;38.37
26376;BME280;30544;42.196;24.336;2023-10-09T06:10:38;99963.78;;;20.89;37.47
26376;BME280;30544;42.196;24.336;2023-10-09T06:13:09;99971.34;;;20.93;37.63
26376;BME280;30544;42.196;24.336;2023-10-09T06:15:49;99982.03;;;20.96;36.95
26376;BME280;30544;42.196;24.336;2023-10-09T06:18:35;99986.78;;;21.01;36.67
26376;BME280;30544;42.196;24.336;2023-10-09T06:21:02;99990.53;;;20.91;36.88
26376;BME280;30544;42.196;24.336;2023-10-09T06:23:48;100002.56;;;21.02;36.74
26376;BME280;30544;42.196;24.336;2023-10-09T06:26:41;100003.03;;;20.85;35.54
26376;BME280;30544;42.196;24.336;2023-10-09T06:29:17;100010.97;;;20.78;35.68
26376;BME280;30544;42.196;24.336;2023-10-09T06:31:59;100017.94;;;20.86;34.75
26376;BME280;30544;42.196;24.336;2023-10-09T06:34:43;100027.03;;;20.78;34.86
26376;BME280;30544;42.196;24.336;2023-10-09T06:37:13;100033.03;;;21.00;35.67
26376;BME280;30544;42.196;24.336;2023-10-09T06:40:00;100022.69;;;20.90;34.75
26376;BME280;30544;42.196;24.336;2023-10-09T06:42:45;100036.25;;;20.88;34.58
26376;BME280;30544;42.196;24.336;2023-10-09T06:45:16;100045.03;;;21.11;34.32
26376;BME280;30544;42.196;24.336;2023-10-09T06:47:47;100031.09;;;20.95;33.68
26376;BME280;30544;42.196;24.336;2023-10-09T06:50:22;100047.34;;;20.75;33.77
26376;BME280;30544;42.196;24.336;2023-10-09T06:52:55;100058.09;;;20.72;34.55
26376;BME280;30544;42.196;24.336;2023-10-09T06:55:39;100059.72;;;20.79;34.11
26376;BME280;30544;42.196;24.336;2023-10-09T06:58:15;100064.75;;;20.87;33.92
26376;BME280;30544;42.196;24.336;2023-10-09T07:00:48;100072.59;;;20.90;34.24
26376;BME280;30544;42.196;24.336;2023-10-09T07:03:28;100069.72;;;20.61;33.77
26376;BME280;30544;42.196;24.336;2023-10-09T07:06:05;100081.34;;;20.54;34.09
26376;BME280;30544;42.196;24.336;2023-10-09T07:08:36;100084.72;;;20.56;33.64
26376;BME280;30544;42.196;24.336;2023-10-09T07:11:23;100083.44;;;20.33;33.98
26376;BME280;30544;42.196;24.336;2023-10-09T07:14:04;100074.66;;;20.40;34.02
26376;BME280;30544;42.196;24.336;2023-10-09T07:16:32;100091.53;;;20.50;34.16
26376;BME280;30544;42.196;24.336;2023-10-09T07:19:03;100095.94;;;20.61;34.19
26376;BME280;30544;42.196;24.336;2023-10-09T07:21:50;100092.69;;;20.44;33.89
26376;BME280;30544;42.196;24.336;2023-10-09T07:24:20;100089.31;;;20.42;34.32
26376;BME280;30544;42.196;24.336;2023-10-09T07:26:50;100088.06;;;20.58;34.62
26376;BME280;30544;42.196;24.336;2023-10-09T07:29:19;100073.31;;;20.71;34.66
26376;BME280;30544;42.196;24.336;2023-10-09T07:31:48;100079.00;;;20.66;34.48
26376;BME280;30544;42.196;24.336;2023-10-09T07:34:23;100081.78;;;20.71;34.11
26376;BME280;30544;42.196;24.336;2023-10-09T07:37:19;100076.94;;;20.77;34.44
26376;BME280;30544;42.196;24.336;2023-10-09T07:39:50;100080.84;;;20.81;33.92
26376;BME280;30544;42.196;24.336;2023-10-09T07:42:23;100075.19;;;20.81;33.92
26376;BME280;30544;42.196;24.336;2023-10-09T07:45:00;100073.19;;;20.87;34.00
26376;BME280;30544;42.196;24.336;2023-10-09T07:47:38;100083.94;;;20.80;33.75
26376;BME280;30544;42.196;24.336;2023-10-09T07:50:18;100070.97;;;20.84;34.32
26376;BME280;30544;42.196;24.336;2023-10-09T07:52:47;100070.56;;;20.95;34.36
26376;BME280;30544;42.196;24.336;2023-10-09T07:55:16;100072.00;;;20.93;34.09
26376;BME280;30544;42.196;24.336;2023-10-09T07:57:55;100072.78;;;20.64;33.74
26376;BME280;30544;42.196;24.336;2023-10-09T08:00:22;100062.53;;;20.79;34.09
26376;BME280;30544;42.196;24.336;2023-10-09T08:03:24;100060.47;;;20.89;33.90
26376;BME280;30544;42.196;24.336;2023-10-09T08:05:51;100066.13;;;20.89;33.83
26376;BME280;30544;42.196;24.336;2023-10-09T08:08:20;100055.63;;;20.95;33.96
26376;BME280;30544;42.196;24.336;2023-10-09T08:11:07;100056.16;;;20.97;34.84
26376;BME280;30544;42.196;24.336;2023-10-09T08:14:00;100054.31;;;20.87;33.99
26376;BME280;30544;42.196;24.336;2023-10-09T08:16:27;100048.59;;;20.92;34.07
26376;BME280;30544;42.196;24.336;2023-10-09T08:19:02;100042.38;;;20.95;34.12
26376;BME280;30544;42.196;24.336;2023-10-09T08:21:47;100045.16;;;21.00;33.99
26376;BME280;30544;42.196;24.336;2023-10-09T08:24:34;100046.97;;;21.15;34.46
26376;BME280;30544;42.196;24.336;2023-10-09T08:27:09;100049.84;;;21.10;34.11
26376;BME280;30544;42.196;24.336;2023-10-09T08:30:05;100051.22;;;21.13;34.15
26376;BME280;30544;42.196;24.336;2023-10-09T08:32:54;100044.44;;;21.14;34.29
26376;BME280;30544;42.196;24.336;2023-10-09T08:35:27;100038.66;;;21.29;34.71
26376;BME280;30544;42.196;24.336;2023-10-09T08:37:55;100035.00;;;21.28;33.93
26376;BME280;30544;42.196;24.336;2023-10-09T08:40:29;100030.31;;;21.19;34.01
26376;BME280;30544;42.196;24.336;2023-10-09T08:43:01;100038.31;;;21.07;34.43
26376;BME280;30544;42.196;24.336;2023-10-09T08:45:36;100028.47;;;21.33;34.90
26376;BME280;30544;42.196;24.336;2023-10-09T08:48:05;100030.22;;;21.29;35.13
26376;BME280;30544;42.196;24.336;2023-10-09T08:50:32;100021.34;;;21.41;35.04
26376;BME280;30544;42.196;24.336;2023-10-09T08:53:00;100017.53;;;21.26;34.47
26376;BME280;30544;42.196;24.336;2023-10-09T08:55:28;100023.31;;;21.40;35.16
26376;BME280;30544;42.196;24.336;2023-10-09T08:57:55;100016.94;;;21.29;34.33
26376;BME280;30544;42.196;24.336;2023-10-09T09:00:25;100013.50;;;21.32;34.65
26376;BME280;30544;42.196;24.336;2023-10-09T09:02:58;100007.03;;;21.32;34.49
26376;BME280;30544;42.196;24.336;2023-10-09T09:05:26;100006.16;;;21.37;34.67
26376;BME280;30544;42.196;24.336;2023-10-09T09:07:54;100009.75;;;21.42;34.38
26376;BME280;30544;42.196;24.336;2023-10-09T09:10:28;100010.50;;;21.48;34.86
26376;BME280;30544;42.196;24.336;2023-10-09T09:13:01;100008.41;;;21.58;35.45
26376;BME280;30544;42.196;24.336;2023-10-09T09:15:30;100002.31;;;21.51;34.87
26376;BME280;30544;42.196;24.336;2023-10-09T09:18:05;100001.03;;;21.62;34.84
26376;BME280;30544;42.196;24.336;2023-10-09T09:20:34;99999.66;;;21.60;35.09
26376;BME280;30544;42.196;24.336;2023-10-09T09:23:09;99999.03;;;21.63;34.83
26376;BME280;30544;42.196;24.336;2023-10-09T09:25:41;99997.84;;;21.69;34.86
26376;BME280;30544;42.196;24.336;2023-10-09T09:28:13;99990.25;;;21.65;34.95
26376;BME280;30544;42.196;24.336;2023-10-09T09:30:46;99994.63;;;21.76;35.08
26376;BME280;30544;42.196;24.336;2023-10-09T09:33:17;99978.31;;;21.73;34.75
26376;BME280;30544;42.196;24.336;2023-10-09T09:36:01;99981.06;;;21.78;34.77
26376;BME280;30544;42.196;24.336;2023-10-09T09:38:29;99979.16;;;21.73;34.82
26376;BME280;30544;42.196;24.336;2023-10-09T09:41:08;99967.78;;;21.78;35.02
26376;BME280;30544;42.196;24.336;2023-10-09T09:43:36;99975.41;;;21.78;34.89
26376;BME280;30544;42.196;24.336;2023-10-09T09:46:07;99969.34;;;21.66;35.18
26376;BME280;30544;42.196;24.336;2023-10-09T09:48:37;99966.41;;;21.76;35.12
26376;BME280;30544;42.196;24.336;2023-10-09T09:51:11;99961.88;;;21.56;34.96
26376;BME280;30544;42.196;24.336;2023-10-09T09:53:39;99954.06;;;21.72;35.37
26376;BME280;30544;42.196;24.336;2023-10-09T09:56:06;99952.47;;;21.84;35.43
26376;BME280;30544;42.196;24.336;2023-10-09T09:58:39;99952.00;;;21.77;35.29
26376;BME280;30544;42.196;24.336;2023-10-09T10:01:12;99945.59;;;21.90;35.67
26376;BME280;30544;42.196;24.336;2023-10-09T10:03:50;99935.97;;;21.91;36.18
26376;BME280;30544;42.196;24.336;2023-10-09T10:06:19;99925.72;;;21.96;36.33
26376;BME280;30544;42.196;24.336;2023-10-09T10:08:48;99918.56;;;22.03;36.08
26376;BME280;30544;42.196;24.336;2023-10-09T10:11:41;99912.03;;;22.08;35.53
26376;BME280;30544;42.196;24.336;2023-10-09T10:14:10;99906.06;;;22.09;35.66
26376;BME280;30544;42.196;24.336;2023-10-09T10:17:11;99898.84;;;22.17;35.86
26376;BME280;30544;42.196;24.336;2023-10-09T10:20:00;99892.63;;;22.20;36.39
26376;BME280;30544;42.196;24.336;2023-10-09T10:22:40;99887.13;;;22.10;36.29
26376;BME280;30544;42.196;24.336;2023-10-09T10:25:31;99887.75;;;22.07;35.78
26376;BME280;30544;42.196;24.336;2023-10-09T10:28:17;99886.91;;;22.06;35.55
26376;BME280;30544;42.196;24.336;2023-10-09T10:30:54;99887.03;;;22.15;35.84
26376;BME280;30544;42.196;24.336;2023-10-09T10:33:26;99877.50;;;22.11;35.79
26376;BME280;30544;42.196;24.336;2023-10-09T10:35:53;99871.34;;;22.09;35.16
26376;BME280;30544;42.196;24.336;2023-10-09T10:38:25;99866.75;;;22.13;35.10
26376;BME280;30544;42.196;24.336;2023-10-09T10:41:11;99855.44;;;22.13;34.83
26376;BME280;30544;42.196;24.336;2023-10-09T10:43:40;99853.88;;;22.07;34.79
26376;BME280;30544;42.196;24.336;2023-10-09T10:46:21;99849.28;;;22.11;34.71
26376;BME280;30544;42.196;24.336;2023-10-09T10:48:59;99838.19;;;22.14;34.82
26376;BME280;30544;42.196;24.336;2023-10-09T10:51:35;99834.44;;;22.19;34.16
26376;BME280;30544;42.196;24.336;2023-10-09T10:54:04;99832.38;;;22.25;34.83
26376;BME280;30544;42.196;24.336;2023-10-09T10:56:49;99831.41;;;22.29;35.10
26376;BME280;30544;42.196;24.336;2023-10-09T10:59:17;99821.38;;;22.23;34.10
26376;BME280;30544;42.196;24.336;2023-10-09T11:01:49;99814.13;;;22.17;33.82
26376;BME280;30544;42.196;24.336;2023-10-09T11:04:40;99820.00;;;22.20;33.91
26376;BME280;30544;42.196;24.336;2023-10-09T11:07:07;99808.94;;;22.24;33.70
26376;BME280;30544;42.196;24.336;2023-10-09T11:09:44;99810.50;;;22.30;34.38
26376;BME280;30544;42.196;24.336;2023-10-09T11:12:23;99810.94;;;22.37;34.24
26376;BME280;30544;42.196;24.336;2023-10-09T11:14:50;99801.31;;;22.38;34.10
26376;BME280;30544;42.196;24.336;2023-10-09T11:17:44;99794.50;;;22.39;34.36
26376;BME280;30544;42.196;24.336;2023-10-09T11:20:12;99788.97;;;22.34;34.47
26376;BME280;30544;42.196;24.336;2023-10-09T11:22:52;99780.38;;;22.39;34.58
26376;BME280;30544;42.196;24.336;2023-10-09T11:25:42;99775.13;;;22.33;33.56
26376;BME280;30544;42.196;24.336;2023-10-09T11:28:17;99770.25;;;22.38;33.50
26376;BME280;30544;42.196;24.336;2023-10-09T11:30:58;99760.59;;;22.39;33.24
26376;BME280;30544;42.196;24.336;2023-10-09T11:33:44;99750.16;;;22.40;33.41
26376;BME280;30544;42.196;24.336;2023-10-09T11:36:11;99732.25;;;22.44;33.58
26376;BME280;30544;42.196;24.336;2023-10-09T11:38:37;99730.25;;;22.45;33.00
26376;BME280;30544;42.196;24.336;2023-10-09T11:41:14;99725.88;;;22.52;33.22
26376;BME280;30544;42.196;24.336;2023-10-09T11:43:50;99732.34;;;22.53;33.60
26376;BME280;30544;42.196;24.336;2023-10-09T11:46:18;99729.72;;;22.57;33.20
26376;BME280;30544;42.196;24.336;2023-10-09T11:49:05;99726.28;;;22.60;33.57
26376;BME280;30544;42.196;24.336;2023-10-09T11:52:07;99721.25;;;22.57;34.28
26376;BME280;30544;42.196;24.336;2023-10-09T11:54:50;99734.22;;;22.58;33.86
26376;BME280;30544;42.196;24.336;2023-10-09T11:57:17;99722.50;;;22.64;33.83
26376;BME280;30544;42.196;24.336;2023-10-09T11:59:44;99721.97;;;22.62;33.31
26376;BME280;30544;42.196;24.336;2023-10-09T12:02:17;99721.84;;;22.67;34.08
26376;BME280;30544;42.196;24.336;2023-10-09T12:04:48;99712.66;;;22.62;33.68
26376;BME280;30544;42.196;24.336;2023-10-09T12:07:15;99699.03;;;22.64;33.60
26376;BME280;30544;42.196;24.336;2023-10-09T12:09:41;99698.31;;;22.72;33.45
26376;BME280;30544;42.196;24.336;2023-10-09T12:12:08;99694.31;;;22.73;33.53
26376;BME280;30544;42.196;24.336;2023-10-09T12:14:35;99680.72;;;22.75;33.19
26376;BME280;30544;42.196;24.336;2023-10-09T12:17:04;99666.19;;;22.68;33.66
26376;BME280;30544;42.196;24.336;2023-10-09T12:19:32;99670.56;;;22.74;33.47
26376;BME280;30544;42.196;24.336;2023-10-09T12:22:01;99664.91;;;22.74;32.91
26376;BME280;30544;42.196;24.336;2023-10-09T12:24:29;99657.06;;;22.71;33.74
26376;BME280;30544;42.196;24.336;2023-10-09T12:26:56;99666.19;;;22.68;33.91
26376;BME280;30544;42.196;24.336;2023-10-09T12:29:23;99652.56;;;22.70;33.40
26376;BME280;30544;42.196;24.336;2023-10-09T12:31:54;99655.72;;;22.55;33.76
26376;BME280;30544;42.196;24.336;2023-10-09T12:34:24;99648.59;;;22.71;33.95
26376;BME280;30544;42.196;24.336;2023-10-09T12:36:53;99636.31;;;22.75;33.51
26376;BME280;30544;42.196;24.336;2023-10-09T12:39:21;99632.00;;;22.78;33.49
26376;BME280;30544;42.196;24.336;2023-10-09T12:41:49;99639.56;;;22.83;33.48
26376;BME280;30544;42.196;24.336;2023-10-09T12:44:19;99652.53;;;22.84;32.95
26376;BME280;30544;42.196;24.336;2023-10-09T12:46:46;99640.63;;;22.87;33.24
26376;BME280;30544;42.196;24.336;2023-10-09T12:49:18;99636.31;;;22.89;32.96
26376;BME280;30544;42.196;24.336;2023-10-09T12:51:50;99630.66;;;22.89;33.11
26376;BME280;30544;42.196;24.336;2023-10-09T12:54:18;99636.50;;;22.93;32.62
26376;BME280;30544;42.196;24.336;2023-10-09T12:56:54;99610.34;;;22.87;32.11
26376;BME280;30544;42.196;24.336;2023-10-09T12:59:21;99610.84;;;22.89;32.63
26376;BME280;30544;42.196;24.336;2023-10-09T13:01:50;99600.06;;;22.91;32.48
26376;BME280;30544;42.196;24.336;2023-10-09T13:04:23;99593.25;;;22.92;32.85
26376;BME280;30544;42.196;24.336;2023-10-09T13:06:57;99602.38;;;22.89;32.89
26376;BME280;30544;42.196;24.336;2023-10-09T13:09:28;99601.72;;;22.92;32.68
26376;BME280;30544;42.196;24.336;2023-10-09T13:12:02;99592.75;;;22.90;33.11
26376;BME280;30544;42.196;24.336;2023-10-09T13:14:31;99597.75;;;22.93;33.14
26376;BME280;30544;42.196;24.336;2023-10-09T13:16:59;99583.09;;;22.91;32.82
26376;BME280;30544;42.196;24.336;2023-10-09T13:19:33;99587.59;;;22.92;32.86
26376;BME280;30544;42.196;24.336;2023-10-09T13:22:00;99589.25;;;22.93;32.56
26376;BME280;30544;42.196;24.336;2023-10-09T13:24:29;99588.09;;;22.94;32.27
26376;BME280;30544;42.196;24.336;2023-10-09T13:26:56;99583.59;;;22.93;33.03